Buoy 41938

sailwx.info

Track history (hours):
 
Tides and Currents Weather Stations Pressure Air Temp Water Temp Dewpoint Dewpoint Depression Visibility Wind Speed Wind Dir Waves Ship Positions

Drifting buoy 41938

Last reported at 2014-Oct-31 18:00 UTC. Time now 2014-Oct-31 20:11 UTC.
Position N 36°13' W 068°06'.

Barometer 1007.5 mb
Water temperature 25.1 ° C

Date/timePositionNaut miles runAvg speedWind from/ knotsBaromVisibWave heightAir tempDewpointWater temp
2014-Oct-31 18:00N 36°13' W 068°06'2 1.7 1007.5 25.1
2014-Oct-31 17:00N 36°12' W 068°05'2 2.0 1008.5 25.1
2014-Oct-31 16:00N 36°12' W 068°02'0 0.0 1009.1 25.0
2014-Oct-31 15:00N 36°12' W 068°02'6 1.3 1010.4 25.0
2014-Oct-31 10:00N 36°13' W 067°54'1 0.9 1010.4 25.0
2014-Oct-31 09:00N 36°13' W 067°53'0 0.0 1010.2 25.1
2014-Oct-31 08:00N 36°13' W 067°53'0 0.0 1010.2 25.0
2014-Oct-31 07:00N 36°13' W 067°53'1 0.5 1010.4 25.0
2014-Oct-31 05:00N 36°12' W 067°54'1 0.4 1011.1 25.0
2014-Oct-31 02:00N 36°11' W 067°55'1 1.5 1011.7 25.0
2014-Oct-31 01:00N 36°10' W 067°56'1 1.1 1011.7 25.0
2014-Oct-31 00:00N 36°09' W 067°56'0 0.1 1011.5 25.0
2014-Oct-30 23:00N 36°09' W 067°56'2 1.6 1011.7 25.1
2014-Oct-30 22:00N 36°08' W 067°56'3 1.7 1011.9 25.1
2014-Oct-30 20:00N 36°04' W 067°57'0 0.0 1011.4 25.1
2014-Oct-30 19:00N 36°04' W 067°57'0 0.0 1011.7 25.1
2014-Oct-30 18:00N 36°04' W 067°57'3 1.3 1012.0 25.1
2014-Oct-30 16:00N 36°01' W 067°56'1 1.4 1013.4 25.0
2014-Oct-30 15:00N 36°00' W 067°56'0 0.3 1014.0 24.9
2014-Oct-30 14:00N 35°60' W 067°56'1 0.8 1014.1 24.9
2014-Oct-30 13:00N 35°59' W 067°56'1 0.6 1014.4 24.8
2014-Oct-30 11:00N 35°58' W 067°57'4 1.9 1014.3 24.8
2014-Oct-30 09:00N 35°55' W 067°59'0 0.0 1014.6 24.9
2014-Oct-30 08:00N 35°55' W 067°59'2 1.6 1014.9 24.9
2014-Oct-30 07:00N 35°53' W 067°59'0 0.1 1015.3 24.8
2014-Oct-30 05:00N 35°53' W 067°59'3 1.0 1016.6 24.9
2014-Oct-30 02:00N 35°50' W 067°60'1 1.4 1018.3 24.9
2014-Oct-30 01:00N 35°49' W 068°00'2 2.0 1018.7 24.9
2014-Oct-30 00:00N 35°47' W 067°59'0 0.0 1019.0 24.9
2014-Oct-29 23:00N 35°47' W 067°59'0 0.0 1019.2 24.9
2014-Oct-29 22:00N 35°47' W 067°59'1 0.6 1019.0 24.9
2014-Oct-29 20:00N 35°46' W 067°60'2 1.6 1019.5 24.9
2014-Oct-29 19:00N 35°44' W 067°59'1 1.2 1020.0 24.9
2014-Oct-29 18:00N 35°43' W 067°59'0 0.0 1020.2 24.9
2014-Oct-29 17:00N 35°43' W 067°59'1 1.4 1020.9 24.9
2014-Oct-29 16:00N 35°42' W 067°59'1 1.1 1021.7 24.8
2014-Oct-29 15:00N 35°41' W 067°59'0 0.0 1022.4 24.7
2014-Oct-29 14:00N 35°41' W 067°59'1 1.1 1022.4 24.6
2014-Oct-29 13:00N 35°40' W 067°59'0 0.0 1022.7 24.7
2014-Oct-29 11:00N 35°40' W 067°59'3 1.3 1022.0 24.6
2014-Oct-29 09:00N 35°37' W 067°60'1 0.7 1022.0 24.6
2014-Oct-29 07:00N 35°36' W 068°00'0 0.1 1021.8 24.6
2014-Oct-29 05:00N 35°36' W 068°00'3 0.9 1022.3 24.6
2014-Oct-29 02:00N 35°33' W 067°60'1 0.5 1023.1 24.6
2014-Oct-29 01:00N 35°33' W 068°00'2 1.8 1022.8 24.6
2014-Oct-29 00:00N 35°32' W 067°58'1 0.3 1022.7 24.6
2014-Oct-28 21:00N 35°32' W 067°59'0 0.1 1022.0 24.6
2014-Oct-28 20:00N 35°32' W 067°59'0 0.0 1021.9 24.7
2014-Oct-28 19:00N 35°32' W 067°59'0 0.3 1022.1 24.7
2014-Oct-28 18:00N 35°32' W 067°60'0 0.1 1022.1 24.7
2014-Oct-28 17:00N 35°32' W 067°60'0 0.1 1022.5 24.7
2014-Oct-28 16:00N 35°32' W 067°60'0 0.2 1022.9 24.7
2014-Oct-28 15:00N 35°32' W 067°60'0 0.0 1023.2 24.7
2014-Oct-28 14:00N 35°32' W 067°60'1 0.3 1023.2 24.6
2014-Oct-28 10:00N 35°32' W 068°01'0 0.4 1021.3 24.7
2014-Oct-28 09:00N 35°31' W 068°01'0 0.4 1020.2 -0.1
2014-Oct-28 08:00N 35°31' W 068°02'1 0.6 1020.2 24.7
2014-Oct-28 07:00N 35°31' W 068°02'1 0.2 1019.9 24.6
2014-Oct-28 03:00N 35°31' W 068°01'0 0.4 1019.3 24.6
2014-Oct-28 02:00N 35°31' W 068°01'0 0.0 1018.9 24.7
2014-Oct-28 01:00N 35°31' W 068°01'1 0.5 1018.2 24.7
2014-Oct-27 23:00N 35°32' W 068°02'0 0.5 1017.3 24.7
2014-Oct-27 22:00N 35°33' W 068°02'2 1.6 1016.7 24.7
2014-Oct-27 21:00N 35°34' W 068°03'0 0.2 1016.2 24.8
2014-Oct-27 19:00N 35°34' W 068°03'1 1.1 1015.5 24.8
2014-Oct-27 18:00N 35°34' W 068°05'0 0.0 1015.3 24.8
2014-Oct-27 17:00N 35°34' W 068°05'2 0.9 1015.4 24.8
2014-Oct-27 15:00N 35°35' W 068°07'2 1.5 1015.9 24.8
2014-Oct-27 14:00N 35°35' W 068°08'0 0.0 1015.6 24.8
2014-Oct-27 11:00N 35°35' W 068°08'1 0.9 1013.8 24.4
2014-Oct-27 10:00N 35°36' W 068°09'1 0.6 1013.2 24.1
2014-Oct-27 09:00N 35°36' W 068°09'1 0.7 1012.6 24.1
2014-Oct-27 08:00N 35°37' W 068°10'1 0.8 1011.7 24.2
2014-Oct-27 07:00N 35°37' W 068°10'2 1.6 1011.4 24.2
2014-Oct-27 06:00N 35°39' W 068°11'2 1.6 1011.3 24.2
2014-Oct-27 05:00N 35°37' W 068°10'3 0.8 1011.0 24.3
2014-Oct-27 02:00N 35°40' W 068°12'0 0.0 1009.2 24.3
2014-Oct-27 01:00N 35°40' W 068°12'2 1.1 1008.3 24.4
2014-Oct-26 23:00N 35°42' W 068°13'0 0.0 1006.2 24.4
2014-Oct-26 22:00N 35°42' W 068°13'1 1.3 1005.4 24.4
2014-Oct-26 21:00N 35°42' W 068°14'1 0.5 1004.5 24.6
2014-Oct-26 20:00N 35°42' W 068°15'1 0.9 1003.6 24.6
2014-Oct-26 19:00N 35°43' W 068°16'1 0.7 1003.4 24.4
2014-Oct-26 17:00N 35°43' W 068°17'5 1.6 1003.5 24.5
2014-Oct-26 14:00N 35°41' W 068°23'0 0.0 1005.7 24.4
2014-Oct-26 11:00N 35°41' W 068°23'0 0.3 1005.5 24.3
2014-Oct-26 10:00N 35°41' W 068°23'1 1.1 1005.7 24.2
2014-Oct-26 09:00N 35°40' W 068°24'0 0.1 1006.2 24.2
2014-Oct-26 08:00N 35°40' W 068°24'1 0.6 1006.0 24.3
2014-Oct-26 07:00N 35°40' W 068°24'1 1.3 1006.5 24.3
2014-Oct-26 06:00N 35°38' W 068°24'2 0.4 1007.3 24.4
2014-Oct-26 02:00N 35°39' W 068°26'1 0.5 1008.7 24.4
2014-Oct-26 01:00N 35°40' W 068°25'0 0.0 1009.0 24.4
2014-Oct-26 00:00N 35°40' W 068°25'0 0.1 1009.1 24.4
2014-Oct-25 22:00N 35°40' W 068°25'1 0.9 1008.6 24.4
2014-Oct-25 21:00N 35°41' W 068°26'0 0.0 1008.8 24.4
2014-Oct-25 20:00N 35°41' W 068°26'0 0.1 1008.9 24.4
2014-Oct-25 19:00N 35°41' W 068°26'1 0.7 1009.1 24.4
2014-Oct-25 17:00N 35°41' W 068°28'2 0.8 1009.7 24.5
2014-Oct-25 15:00N 35°42' W 068°29'0 0.0 1010.9 24.5
2014-Oct-25 14:00N 35°42' W 068°29'1 1.0 1011.0 24.5
2014-Oct-25 13:00N 35°42' W 068°31'0 0.0 1011.1 24.5
2014-Oct-25 11:00N 35°42' W 068°31'1 0.6 1010.6 24.5
2014-Oct-25 10:00N 35°42' W 068°31'1 0.7 1010.2 24.6
2014-Oct-25 09:00N 35°42' W 068°30'3 2.6 1010.0 24.5
2014-Oct-25 08:00N 35°43' W 068°33'0 0.0 1009.4 24.5
2014-Oct-25 06:00N 35°43' W 068°33'0 0.0 1009.8 24.5
2014-Oct-25 05:00N 35°43' W 068°33'6 2.0 1009.8 24.6
2014-Oct-25 02:00N 35°47' W 068°38'0 0.0 1009.5 24.6
2014-Oct-25 01:00N 35°47' W 068°38'0 0.0 1009.3 24.6
2014-Oct-24 23:00N 35°47' W 068°38'1 0.4 1008.5 24.7
2014-Oct-24 21:00N 35°48' W 068°38'2 2.0 1007.9 24.9
2014-Oct-24 20:00N 35°49' W 068°40'6 2.8 1008.1 24.9
2014-Oct-24 18:00N 35°53' W 068°45'0 0.0 1007.9 24.8
2014-Oct-24 17:00N 35°53' W 068°45'0 0.2 1008.1 24.8
2014-Oct-24 15:00N 35°53' W 068°45'0 0.0 1008.6 24.7
2014-Oct-24 14:00N 35°53' W 068°45'4 3.9 1008.6 24.7
2014-Oct-24 13:00N 35°56' W 068°49'0 0.0 1008.1 24.8
2014-Oct-24 11:00N 35°56' W 068°49'2 2.0 1006.7 24.9
2014-Oct-24 10:00N 35°57' W 068°50'1 1.1 1006.4 25.0
2014-Oct-24 09:00N 35°58' W 068°51'3 2.6 1005.9 25.0
2014-Oct-24 08:00N 35°60' W 068°54'6 1.0 1005.3 24.9
2014-Oct-24 02:00N 36°04' W 068°59'4 1.8 1005.2 25.0
2014-Oct-24 00:00N 36°07' W 069°02'2 1.1 1004.4 25.0
2014-Oct-23 22:00N 36°08' W 069°04'3 1.5 1003.7 24.9
2014-Oct-23 20:00N 36°10' W 069°07'3 2.8 1003.1 25.0
2014-Oct-23 19:00N 36°11' W 069°10'0 0.0 1003.0 25.1
2014-Oct-23 18:00N 36°11' W 069°10'2 0.8 1003.0 25.1
2014-Oct-23 15:00N 36°11' W 069°13'6 1.5 1004.2 25.1
2014-Oct-23 11:00N 36°12' W 069°21'1 1.4 1003.8 25.1
2014-Oct-23 10:00N 36°12' W 069°23'10 2.4 1003.3 25.2
2014-Oct-23 06:00N 36°09' W 069°34'0 0.0 1003.1 25.3
2014-Oct-23 03:00N 36°09' W 069°34'3 3.0 1004.4 25.4
2014-Oct-23 02:00N 36°08' W 069°37'0 0.0 1005.0 25.4
2014-Oct-23 01:00N 36°08' W 069°37'1 1.1 1005.1 25.3
2014-Oct-23 00:00N 36°08' W 069°39'0 0.0 1004.6 25.3
2014-Oct-22 23:00N 36°08' W 069°39'1 1.1 1005.1 25.3
2014-Oct-22 22:00N 36°08' W 069°39'3 1.7 1005.1 25.3
2014-Oct-22 20:00N 36°05' W 069°42'2 1.0 1005.4 25.4
2014-Oct-22 18:00N 36°03' W 069°43'0 0.0 1006.0 25.4
2014-Oct-22 17:00N 36°03' W 069°43'2 1.7 1006.6 25.4
2014-Oct-22 16:00N 36°01' W 069°43'3 2.6 1007.4 25.4
2014-Oct-22 15:00N 36°01' W 069°40'1 1.0 1007.8 25.3
2014-Oct-22 14:00N 36°01' W 069°39'0 0.0 1008.4 24.9
2014-Oct-22 11:00N 36°01' W 069°39'0 0.0 1008.7 25.3
2014-Oct-22 10:00N 36°01' W 069°39'3 3.3 1008.9 25.3
2014-Oct-22 09:00N 35°58' W 069°42'0 0.0 1008.9 25.4
2014-Oct-22 08:00N 35°58' W 069°42'0 0.0 1008.0 25.4
2014-Oct-22 07:00N 35°58' W 069°42'0 0.0 1009.5 25.4
2014-Oct-22 05:00N 35°58' W 069°42'0 0.2 1010.8 25.4
2014-Oct-22 02:00N 35°58' W 069°42'2 2.5 1012.4 25.3
2014-Oct-22 01:00N 35°56' W 069°45'2 2.5 1012.5 25.3
2014-Oct-22 00:00N 35°54' W 069°43'0 0.0 1012.5 25.3
2014-Oct-21 23:00N 35°54' W 069°43'1 1.2 1012.1 25.3
2014-Oct-21 22:00N 35°53' W 069°44'5 2.4 1011.6 25.3
2014-Oct-21 20:00N 35°49' W 069°42'1 0.6 1012.0 25.4
2014-Oct-21 18:00N 35°48' W 069°42'   1012.5 25.4
Track history (hours):
 
Tides and Currents Weather Stations Pressure Air Temp Water Temp Dewpoint Dewpoint Depression Visibility Wind Speed Wind Dir Waves Ship Positions

Drifting buoy 41938

Last reported at 2014-Oct-31 18:00 UTC. Time now 2014-Oct-31 20:11 UTC.
Position N 36°13' W 068°06'.

Barometer 1007.5 mb
Water temperature 25.1 ° C

Date/timePositionNaut miles runAvg speedWind from/ knotsBaromVisibWave heightAir tempDewpointWater temp
2014-Oct-31 18:00N 36°13' W 068°06'2 1.7 1007.5 25.1
2014-Oct-31 17:00N 36°12' W 068°05'2 2.0 1008.5 25.1
2014-Oct-31 16:00N 36°12' W 068°02'0 0.0 1009.1 25.0
2014-Oct-31 15:00N 36°12' W 068°02'6 1.3 1010.4 25.0
2014-Oct-31 10:00N 36°13' W 067°54'1 0.9 1010.4 25.0
2014-Oct-31 09:00N 36°13' W 067°53'0 0.0 1010.2 25.1
2014-Oct-31 08:00N 36°13' W 067°53'0 0.0 1010.2 25.0
2014-Oct-31 07:00N 36°13' W 067°53'1 0.5 1010.4 25.0
2014-Oct-31 05:00N 36°12' W 067°54'1 0.4 1011.1 25.0
2014-Oct-31 02:00N 36°11' W 067°55'1 1.5 1011.7 25.0
2014-Oct-31 01:00N 36°10' W 067°56'1 1.1 1011.7 25.0
2014-Oct-31 00:00N 36°09' W 067°56'0 0.1 1011.5 25.0
2014-Oct-30 23:00N 36°09' W 067°56'2 1.6 1011.7 25.1
2014-Oct-30 22:00N 36°08' W 067°56'3 1.7 1011.9 25.1
2014-Oct-30 20:00N 36°04' W 067°57'0 0.0 1011.4 25.1
2014-Oct-30 19:00N 36°04' W 067°57'0 0.0 1011.7 25.1
2014-Oct-30 18:00N 36°04' W 067°57'3 1.3 1012.0 25.1
2014-Oct-30 16:00N 36°01' W 067°56'1 1.4 1013.4 25.0
2014-Oct-30 15:00N 36°00' W 067°56'0 0.3 1014.0 24.9
2014-Oct-30 14:00N 35°60' W 067°56'1 0.8 1014.1 24.9
2014-Oct-30 13:00N 35°59' W 067°56'1 0.6 1014.4 24.8
2014-Oct-30 11:00N 35°58' W 067°57'4 1.9 1014.3 24.8
2014-Oct-30 09:00N 35°55' W 067°59'0 0.0 1014.6 24.9
2014-Oct-30 08:00N 35°55' W 067°59'2 1.6 1014.9 24.9
2014-Oct-30 07:00N 35°53' W 067°59'0 0.1 1015.3 24.8
2014-Oct-30 05:00N 35°53' W 067°59'3 1.0 1016.6 24.9
2014-Oct-30 02:00N 35°50' W 067°60'1 1.4 1018.3 24.9
2014-Oct-30 01:00N 35°49' W 068°00'2 2.0 1018.7 24.9
2014-Oct-30 00:00N 35°47' W 067°59'0 0.0 1019.0 24.9
2014-Oct-29 23:00N 35°47' W 067°59'0 0.0 1019.2 24.9
2014-Oct-29 22:00N 35°47' W 067°59'1 0.6 1019.0 24.9
2014-Oct-29 20:00N 35°46' W 067°60'2 1.6 1019.5 24.9
2014-Oct-29 19:00N 35°44' W 067°59'1 1.2 1020.0 24.9
2014-Oct-29 18:00N 35°43' W 067°59'0 0.0 1020.2 24.9
2014-Oct-29 17:00N 35°43' W 067°59'1 1.4 1020.9 24.9
2014-Oct-29 16:00N 35°42' W 067°59'1 1.1 1021.7 24.8
2014-Oct-29 15:00N 35°41' W 067°59'0 0.0 1022.4 24.7
2014-Oct-29 14:00N 35°41' W 067°59'1 1.1 1022.4 24.6
2014-Oct-29 13:00N 35°40' W 067°59'0 0.0 1022.7 24.7
2014-Oct-29 11:00N 35°40' W 067°59'3 1.3 1022.0 24.6
2014-Oct-29 09:00N 35°37' W 067°60'1 0.7 1022.0 24.6
2014-Oct-29 07:00N 35°36' W 068°00'0 0.1 1021.8 24.6
2014-Oct-29 05:00N 35°36' W 068°00'3 0.9 1022.3 24.6
2014-Oct-29 02:00N 35°33' W 067°60'1 0.5 1023.1 24.6
2014-Oct-29 01:00N 35°33' W 068°00'2 1.8 1022.8 24.6
2014-Oct-29 00:00N 35°32' W 067°58'1 0.3 1022.7 24.6
2014-Oct-28 21:00N 35°32' W 067°59'0 0.1 1022.0 24.6
2014-Oct-28 20:00N 35°32' W 067°59'0 0.0 1021.9 24.7
2014-Oct-28 19:00N 35°32' W 067°59'0 0.3 1022.1 24.7
2014-Oct-28 18:00N 35°32' W 067°60'0 0.1 1022.1 24.7
2014-Oct-28 17:00N 35°32' W 067°60'0 0.1 1022.5 24.7
2014-Oct-28 16:00N 35°32' W 067°60'0 0.2 1022.9 24.7
2014-Oct-28 15:00N 35°32' W 067°60'0 0.0 1023.2 24.7
2014-Oct-28 14:00N 35°32' W 067°60'1 0.3 1023.2 24.6
2014-Oct-28 10:00N 35°32' W 068°01'0 0.4 1021.3 24.7
2014-Oct-28 09:00N 35°31' W 068°01'0 0.4 1020.2 -0.1
2014-Oct-28 08:00N 35°31' W 068°02'1 0.6 1020.2 24.7
2014-Oct-28 07:00N 35°31' W 068°02'1 0.2 1019.9 24.6
2014-Oct-28 03:00N 35°31' W 068°01'0 0.4 1019.3 24.6
2014-Oct-28 02:00N 35°31' W 068°01'0 0.0 1018.9 24.7
2014-Oct-28 01:00N 35°31' W 068°01'1 0.5 1018.2 24.7
2014-Oct-27 23:00N 35°32' W 068°02'0 0.5 1017.3 24.7
2014-Oct-27 22:00N 35°33' W 068°02'2 1.6 1016.7 24.7
2014-Oct-27 21:00N 35°34' W 068°03'0 0.2 1016.2 24.8
2014-Oct-27 19:00N 35°34' W 068°03'1 1.1 1015.5 24.8
2014-Oct-27 18:00N 35°34' W 068°05'0 0.0 1015.3 24.8
2014-Oct-27 17:00N 35°34' W 068°05'2 0.9 1015.4 24.8
2014-Oct-27 15:00N 35°35' W 068°07'2 1.5 1015.9 24.8
2014-Oct-27 14:00N 35°35' W 068°08'0 0.0 1015.6 24.8
2014-Oct-27 11:00N 35°35' W 068°08'1 0.9 1013.8 24.4
2014-Oct-27 10:00N 35°36' W 068°09'1 0.6 1013.2 24.1
2014-Oct-27 09:00N 35°36' W 068°09'1 0.7 1012.6 24.1
2014-Oct-27 08:00N 35°37' W 068°10'1 0.8 1011.7 24.2
2014-Oct-27 07:00N 35°37' W 068°10'2 1.6 1011.4 24.2
2014-Oct-27 06:00N 35°39' W 068°11'2 1.6 1011.3 24.2
2014-Oct-27 05:00N 35°37' W 068°10'3 0.8 1011.0 24.3
2014-Oct-27 02:00N 35°40' W 068°12'0 0.0 1009.2 24.3
2014-Oct-27 01:00N 35°40' W 068°12'2 1.1 1008.3 24.4
2014-Oct-26 23:00N 35°42' W 068°13'0 0.0 1006.2 24.4
2014-Oct-26 22:00N 35°42' W 068°13'1 1.3 1005.4 24.4
2014-Oct-26 21:00N 35°42' W 068°14'1 0.5 1004.5 24.6
2014-Oct-26 20:00N 35°42' W 068°15'1 0.9 1003.6 24.6
2014-Oct-26 19:00N 35°43' W 068°16'1 0.7 1003.4 24.4
2014-Oct-26 17:00N 35°43' W 068°17'5 1.6 1003.5 24.5
2014-Oct-26 14:00N 35°41' W 068°23'0 0.0 1005.7 24.4
2014-Oct-26 11:00N 35°41' W 068°23'0 0.3 1005.5 24.3
2014-Oct-26 10:00N 35°41' W 068°23'1 1.1 1005.7 24.2
2014-Oct-26 09:00N 35°40' W 068°24'0 0.1 1006.2 24.2
2014-Oct-26 08:00N 35°40' W 068°24'1 0.6 1006.0 24.3
2014-Oct-26 07:00N 35°40' W 068°24'1 1.3 1006.5 24.3
2014-Oct-26 06:00N 35°38' W 068°24'2 0.4 1007.3 24.4
2014-Oct-26 02:00N 35°39' W 068°26'1 0.5 1008.7 24.4
2014-Oct-26 01:00N 35°40' W 068°25'0 0.0 1009.0 24.4
2014-Oct-26 00:00N 35°40' W 068°25'0 0.1 1009.1 24.4
2014-Oct-25 22:00N 35°40' W 068°25'1 0.9 1008.6 24.4
2014-Oct-25 21:00N 35°41' W 068°26'0 0.0 1008.8 24.4
2014-Oct-25 20:00N 35°41' W 068°26'0 0.1 1008.9 24.4
2014-Oct-25 19:00N 35°41' W 068°26'1 0.7 1009.1 24.4
2014-Oct-25 17:00N 35°41' W 068°28'2 0.8 1009.7 24.5
2014-Oct-25 15:00N 35°42' W 068°29'0 0.0 1010.9 24.5
2014-Oct-25 14:00N 35°42' W 068°29'1 1.0 1011.0 24.5
2014-Oct-25 13:00N 35°42' W 068°31'0 0.0 1011.1 24.5
2014-Oct-25 11:00N 35°42' W 068°31'1 0.6 1010.6 24.5
2014-Oct-25 10:00N 35°42' W 068°31'1 0.7 1010.2 24.6
2014-Oct-25 09:00N 35°42' W 068°30'3 2.6 1010.0 24.5
2014-Oct-25 08:00N 35°43' W 068°33'0 0.0 1009.4 24.5
2014-Oct-25 06:00N 35°43' W 068°33'0 0.0 1009.8 24.5
2014-Oct-25 05:00N 35°43' W 068°33'6 2.0 1009.8 24.6
2014-Oct-25 02:00N 35°47' W 068°38'0 0.0 1009.5 24.6
2014-Oct-25 01:00N 35°47' W 068°38'0 0.0 1009.3 24.6
2014-Oct-24 23:00N 35°47' W 068°38'1 0.4 1008.5 24.7
2014-Oct-24 21:00N 35°48' W 068°38'2 2.0 1007.9 24.9
2014-Oct-24 20:00N 35°49' W 068°40'6 2.8 1008.1 24.9
2014-Oct-24 18:00N 35°53' W 068°45'0 0.0 1007.9 24.8
2014-Oct-24 17:00N 35°53' W 068°45'0 0.2 1008.1 24.8
2014-Oct-24 15:00N 35°53' W 068°45'0 0.0 1008.6 24.7
2014-Oct-24 14:00N 35°53' W 068°45'4 3.9 1008.6 24.7
2014-Oct-24 13:00N 35°56' W 068°49'0 0.0 1008.1 24.8
2014-Oct-24 11:00N 35°56' W 068°49'2 2.0 1006.7 24.9
2014-Oct-24 10:00N 35°57' W 068°50'1 1.1 1006.4 25.0
2014-Oct-24 09:00N 35°58' W 068°51'3 2.6 1005.9 25.0
2014-Oct-24 08:00N 35°60' W 068°54'6 1.0 1005.3 24.9
2014-Oct-24 02:00N 36°04' W 068°59'4 1.8 1005.2 25.0
2014-Oct-24 00:00N 36°07' W 069°02'2 1.1 1004.4 25.0
2014-Oct-23 22:00N 36°08' W 069°04'3 1.5 1003.7 24.9
2014-Oct-23 20:00N 36°10' W 069°07'3 2.8 1003.1 25.0
2014-Oct-23 19:00N 36°11' W 069°10'0 0.0 1003.0 25.1
2014-Oct-23 18:00N 36°11' W 069°10'2 0.8 1003.0 25.1
2014-Oct-23 15:00N 36°11' W 069°13'6 1.5 1004.2 25.1
2014-Oct-23 11:00N 36°12' W 069°21'1 1.4 1003.8 25.1
2014-Oct-23 10:00N 36°12' W 069°23'10 2.4 1003.3 25.2
2014-Oct-23 06:00N 36°09' W 069°34'0 0.0 1003.1 25.3
2014-Oct-23 03:00N 36°09' W 069°34'3 3.0 1004.4 25.4
2014-Oct-23 02:00N 36°08' W 069°37'0 0.0 1005.0 25.4
2014-Oct-23 01:00N 36°08' W 069°37'1 1.1 1005.1 25.3
2014-Oct-23 00:00N 36°08' W 069°39'0 0.0 1004.6 25.3
2014-Oct-22 23:00N 36°08' W 069°39'1 1.1 1005.1 25.3
2014-Oct-22 22:00N 36°08' W 069°39'3 1.7 1005.1 25.3
2014-Oct-22 20:00N 36°05' W 069°42'2 1.0 1005.4 25.4
2014-Oct-22 18:00N 36°03' W 069°43'0 0.0 1006.0 25.4
2014-Oct-22 17:00N 36°03' W 069°43'2 1.7 1006.6 25.4
2014-Oct-22 16:00N 36°01' W 069°43'3 2.6 1007.4 25.4
2014-Oct-22 15:00N 36°01' W 069°40'1 1.0 1007.8 25.3
2014-Oct-22 14:00N 36°01' W 069°39'0 0.0 1008.4 24.9
2014-Oct-22 11:00N 36°01' W 069°39'0 0.0 1008.7 25.3
2014-Oct-22 10:00N 36°01' W 069°39'3 3.3 1008.9 25.3
2014-Oct-22 09:00N 35°58' W 069°42'0 0.0 1008.9 25.4
2014-Oct-22 08:00N 35°58' W 069°42'0 0.0 1008.0 25.4
2014-Oct-22 07:00N 35°58' W 069°42'0 0.0 1009.5 25.4
2014-Oct-22 05:00N 35°58' W 069°42'0 0.2 1010.8 25.4
2014-Oct-22 02:00N 35°58' W 069°42'2 2.5 1012.4 25.3
2014-Oct-22 01:00N 35°56' W 069°45'2 2.5 1012.5 25.3
2014-Oct-22 00:00N 35°54' W 069°43'0 0.0 1012.5 25.3
2014-Oct-21 23:00N 35°54' W 069°43'1 1.2 1012.1 25.3
2014-Oct-21 22:00N 35°53' W 069°44'5 2.4 1011.6 25.3
2014-Oct-21 20:00N 35°49' W 069°42'1 0.6 1012.0 25.4
2014-Oct-21 18:00N 35°48' W 069°42'   1012.5 25.4

Dump ship's entire track history